Home > Products > Valid Products > MTR

000
SAUS43 KDDC 300300
MTRP28
METAR KP28 300256Z AUTO 09006KT 19/17 A3005 RMK AO1 SLP163 T01940167
53017





000
SAUS43 KDDC 300300
MTRP28
METAR KP28 300256Z AUTO 09006KT 19/17 A3005 RMK AO1 SLP163 T01940167
53017





000
SAUS43 KDDC 300200
MTRP28
METAR KP28 300156Z AUTO 07005KT 21/17 A3002 RMK AO1 SLP155 T02060172





000
SAUS43 KDDC 300200
MTRP28
METAR KP28 300156Z AUTO 07005KT 21/17 A3002 RMK AO1 SLP155 T02060172





000
SAUS43 KDDC 300100
MTRP28
METAR KP28 300056Z AUTO 10007KT 24/18 A3000 RMK AO1 SLP148 T02440178





000
SAUS43 KDDC 300000
MTRP28
METAR KP28 292356Z AUTO 07005KT 27/18 A3000 RMK AO1 SLP144 T02670178
10300 20267 55003





000
SAUS43 KDDC 300000
MTRP28
METAR KP28 292356Z AUTO 07005KT 27/18 A3000 RMK AO1 SLP144 T02670178
10300 20267 55003





000
SAUS43 KDDC 292300
MTRP28
METAR KP28 292256Z AUTO 06008KT 29/17 A2999 RMK AO1 SLP141 T02890172





000
SAUS43 KDDC 292200
MTRP28
METAR KP28 292156Z AUTO 03005G16KT 29/16 A3000 RMK AO1 SLP141
T02940161





000
SAUS43 KDDC 292200
MTRP28
METAR KP28 292156Z AUTO 03005G16KT 29/16 A3000 RMK AO1 SLP141
T02940161





000
SAUS43 KDDC 292100
MTRP28
METAR KP28 292056Z AUTO 02007KT 320V060 30/18 A3001 RMK AO1 SLP145
T03000178 57017





000
SAUS43 KDDC 292000
MTRP28
METAR KP28 291956Z AUTO 02010KT 29/17 A3002 RMK AO1 SLP151 T02940172





000
SAUS43 KDDC 291900
MTRP28
METAR KP28 291856Z AUTO 02007KT 29/17 A3004 RMK AO1 SLP156 T02890172





000
SAUS43 KDDC 291900
MTRP28
METAR KP28 291856Z AUTO 02007KT 29/17 A3004 RMK AO1 SLP156 T02890172





000
SAUS43 KDDC 291800
MTRP28
METAR KP28 291756Z AUTO 02009KT 28/17 A3006 RMK AO1 SLP163 T02780167
10278 20178 58003





000
SAUS43 KDDC 291700
MTRP28
METAR KP28 291656Z AUTO 36011KT 27/17 A3008 RMK AO1 SLP169 T02670167





000
SAUS43 KDDC 291700
MTRP28
METAR KP28 291656Z AUTO 36011KT 27/17 A3008 RMK AO1 SLP169 T02670167





000
SAUS43 KDDC 291600
MTRP28
METAR KP28 291556Z AUTO 01012KT 26/17 A3007 RMK AO1 SLP168 T02560172





000
SAUS43 KDDC 291600
MTRP28
METAR KP28 291556Z AUTO 01012KT 26/17 A3007 RMK AO1 SLP168 T02560172





000
SAUS43 KDDC 291500
MTRP28
METAR KP28 291456Z AUTO 01011KT 24/17 A3007 RMK AO1 SLP166 T02390172
51012





000
SAUS43 KDDC 291500
MTRP28
METAR KP28 291456Z AUTO 01011KT 24/17 A3007 RMK AO1 SLP166 T02390172
51012





000
SAUS43 KDDC 291400
MTRP28
METAR KP28 291356Z AUTO 35007KT 21/18 A3006 RMK AO1 SLP164 T02060178





000
SAUS43 KDDC 291300
MTRP28
METAR KP28 291256Z AUTO 36004KT 18/17 A3005 RMK AO1 SLP161 T01830172





000
SAUS43 KDDC 291300
MTRP28
METAR KP28 291256Z AUTO 36004KT 18/17 A3005 RMK AO1 SLP161 T01830172





000
SAUS43 KDDC 291200
MTRP28
METAR KP28 291156Z AUTO 34004KT 18/17 A3003 RMK AO1 SLP154 T01780172
10228 20178 51008





000
SAUS43 KDDC 291200
MTRP28
METAR KP28 291156Z AUTO 34004KT 18/17 A3003 RMK AO1 SLP154 T01780172
10228 20178 51008





000
SAUS43 KDDC 291100
MTRP28
METAR KP28 291056Z AUTO 00000KT 18/17 A3003 RMK AO1 SLP151 T01830172





000
SAUS43 KDDC 291000
MTRP28
METAR KP28 290956Z AUTO 36005KT 20/18 A3002 RMK AO1 SLP147 T02000178





000
SAUS43 KDDC 290900
MTRP28
METAR KP28 290856Z AUTO 01005KT 21/18 A3001 RMK AO1 SLP144 T02110183
53004





000
SAUS43 KDDC 290800
MTRP28
METAR KP28 290756Z AUTO 01007KT 22/19 A3000 RMK AO1 SLP140 T02170194





000
SAUS43 KDDC 290700
MTRP28
METAR KP28 290656Z AUTO 02008KT 22/19 A2999 RMK AO1 SLP139 T02220194





000
SAUS43 KDDC 290700
MTRP28
METAR KP28 290656Z AUTO 02008KT 22/19 A2999 RMK AO1 SLP139 T02220194





000
SAUS43 KDDC 290600
MTRP28
METAR KP28 290556Z AUTO 01006KT 22/19 A2999 RMK AO1 SLP139 T02220194
10328 20222 403440222 51015





000
SAUS43 KDDC 290500
MTRP28
METAR KP28 290456Z AUTO 35005KT 23/19 A2999 RMK AO1 SLP137 T02280194





000
SAUS43 KDDC 290400
MTRP28
METAR KP28 290356Z AUTO 34004KT 24/19 A2998 RMK AO1 SLP135 T02390194





000
SAUS43 KDDC 290300
MTRP28
METAR KP28 290256Z AUTO 05008KT 27/19 A2995 RMK AO1 SLP126 T02670189
53020





000
SAUS43 KDDC 290200
MTRP28
METAR KP28 290156Z AUTO 19004KT 29/18 A2991 RMK AO1 SLP110 T02890183





000
SAUS43 KDDC 290100
MTRP28
METAR KP28 290056Z AUTO 19004KT 30/19 A2989 RMK AO1 SLP104 T03000189





000
SAUS43 KDDC 290100
MTRP28
METAR KP28 290056Z AUTO 19004KT 30/19 A2989 RMK AO1 SLP104 T03000189





000
SAUS43 KDDC 290000
MTRP28
METAR KP28 282356Z AUTO 29003KT 33/18 A2989 RMK AO1 SLP102 T03280178
10344 20311 55003





000
SAUS43 KDDC 290000
MTRP28
METAR KP28 282356Z AUTO 29003KT 33/18 A2989 RMK AO1 SLP102 T03280178
10344 20311 55003





000
SAUS43 KDDC 282300
MTRP28
METAR KP28 282256Z AUTO 33005KT 33/18 A2989 RMK AO1 SLP102 T03330178





000
SAUS43 KDDC 282200
MTRP28
METAR KP28 282156Z AUTO 30006KT 33/19 A2989 RMK AO1 SLP103 T03330189





000
SAUS43 KDDC 282200
MTRP28
METAR KP28 282156Z AUTO 30006KT 33/19 A2989 RMK AO1 SLP103 T03330189





000
SAUS43 KDDC 282101
MTRP28
METAR KP28 282056Z AUTO 28007KT 33/18 A2990 RMK AO1 SLP106 T03280183
56012





000
SAUS43 KDDC 282000
MTRP28
METAR KP28 281956Z AUTO 27007KT 220V280 32/20 A2990 RMK AO1 SLP108
T03220200





000
SAUS43 KDDC 282000
MTRP28
METAR KP28 281956Z AUTO 27007KT 220V280 32/20 A2990 RMK AO1 SLP108
T03220200





000
SAUS43 KDDC 281900
MTRP28
METAR KP28 281856Z AUTO 30009KT 32/21 A2992 RMK AO1 SLP114 T03170206





000
SAUS43 KDDC 281900
MTRP28
METAR KP28 281856Z AUTO 30009KT 32/21 A2992 RMK AO1 SLP114 T03170206





000
SAUS43 KDDC 281800
MTRP28
METAR KP28 281756Z AUTO VRB05KT 31/21 A2993 RMK AO1 SLP118 T03110211
10311 20222 58004





000
SAUS43 KDDC 281800
MTRP28
METAR KP28 281756Z AUTO VRB05KT 31/21 A2993 RMK AO1 SLP118 T03110211
10311 20222 58004





000
SAUS43 KDDC 281700
MTRP28
METAR KP28 281656Z AUTO 28007KT 29/21 A2995 RMK AO1 SLP123 T02940206





000
SAUS43 KDDC 281700
MTRP28
METAR KP28 281656Z AUTO 28007KT 29/21 A2995 RMK AO1 SLP123 T02940206





000
SAUS43 KDDC 281600
MTRP28
METAR KP28 281556Z AUTO 22004KT 26/21 A2995 RMK AO1 SLP124 T02610206





000
SAUS43 KDDC 281500
MTRP28
METAR KP28 281456Z AUTO 17003KT 23/20 A2995 RMK AO1 SLP124 T02330200
53011





000
SAUS43 KDDC 281400
MTRP28
METAR KP28 281356Z AUTO 19004KT 23/19 A2994 RMK AO1 SLP122 T02280194





000
SAUS43 KDDC 281400
MTRP28
METAR KP28 281356Z AUTO 19004KT 23/19 A2994 RMK AO1 SLP122 T02280194





000
SAUS43 KDDC 281300
MTRP28
METAR KP28 281256Z AUTO VRB03KT 22/19 A2991 RMK AO1 SLP113 T02220194





000
SAUS43 KDDC 281300
MTRP28
METAR KP28 281256Z AUTO VRB03KT 22/19 A2991 RMK AO1 SLP113 T02220194





000
SAUS43 KDDC 281200
MTRP28
METAR KP28 281156Z AUTO 19009KT 22/19 A2991 RMK AO1 SLP113 60010
70027 T02220194 10239 20222 56008





000
SAUS43 KDDC 281200
MTRP28
METAR KP28 281156Z AUTO 19009KT 22/19 A2991 RMK AO1 SLP113 60010
70027 T02220194 10239 20222 56008





000
SAUS43 KDDC 281100
MTRP28
METAR KP28 281056Z AUTO 18012KT 22/19 A2991 RMK AO1 SLP112 T02220194





000
SAUS43 KDDC 281100
MTRP28
METAR KP28 281056Z AUTO 18012KT 22/19 A2991 RMK AO1 SLP112 T02220194





000
SAUS43 KDDC 281000
MTRP28
METAR KP28 280956Z AUTO 18009KT 22/20 A2992 RMK AO1 SLP113 T02220200





000
SAUS43 KDDC 280900
MTRP28
METAR KP28 280856Z AUTO 16009KT 23/20 A2994 RMK AO1 SLP122 P0001
60010 T02280200 58022





000
SAUS43 KDDC 280900
MTRP28
METAR KP28 280856Z AUTO 16009KT 23/20 A2994 RMK AO1 SLP122 P0001
60010 T02280200 58022





000
SAUS43 KDDC 280800
MTRP28
METAR KP28 280756Z AUTO 17009KT 22/20 A2997 RMK AO1 SLP130 P0001
T02220200





000
SAUS43 KDDC 280700
MTRP28
METAR KP28 280656Z AUTO 16006KT 23/21 A3001 RMK AO1 SLP141 P0008
T02330211





000
SAUS43 KDDC 280700
MTRP28
METAR KP28 280656Z AUTO 16006KT 23/21 A3001 RMK AO1 SLP141 P0008
T02330211





000
SAUS43 KDDC 280600
MTRP28
METAR KP28 280556Z AUTO 16007KT 24/22 A3001 RMK AO1 SLP141 P0009
60017 T02390217 10283 20233 403720211 53034





000
SAUS43 KDDC 280500
MTRP28
METAR KP28 280456Z AUTO 13008KT 24/22 A2997 RMK AO1 SLP130 P0008
T02440217





000
SAUS43 KDDC 280500
MTRP28
METAR KP28 280456Z AUTO 13008KT 24/22 A2997 RMK AO1 SLP130 P0008
T02440217





000
SAUS43 KDDC 280400
MTRP28
METAR KP28 280356Z AUTO 17010G20KT 27/21 A2992 RMK AO1 SLP113
T02670206





000
SAUS43 KDDC 280400
MTRP28
METAR KP28 280356Z AUTO 17010G20KT 27/21 A2992 RMK AO1 SLP113
T02670206





000
SAUS43 KDDC 280300
MTRP28
METAR KP28 280256Z AUTO 14010G18KT 27/21 A2990 RMK AO1 SLP107
T02670206 55001





000
SAUS43 KDDC 280200
MTRP28
METAR KP28 280156Z AUTO 14010KT 28/20 A2989 RMK AO1 SLP106 T02780200





000
SAUS43 KDDC 280100
MTRP28
METAR KP28 280056Z AUTO 17011G18KT 28/20 A2989 RMK AO1 SLP105
T02830200





000
SAUS43 KDDC 280000
MTRP28
METAR KP28 272356Z AUTO 16009KT 28/19 A2990 RMK AO1 SLP110 T02830194
10372 20283 55017





000
SAUS43 KDDC 280000
MTRP28
METAR KP28 272356Z AUTO 16009KT 28/19 A2990 RMK AO1 SLP110 T02830194
10372 20283 55017





000
SAUS43 KDDC 272300
MTRP28
METAR KP28 272256Z AUTO 16011G21KT 29/18 A2990 RMK AO1 SLP107
T02940183





000
SAUS43 KDDC 272300
MTRP28
METAR KP28 272256Z AUTO 16011G21KT 29/18 A2990 RMK AO1 SLP107
T02940183





000
SAUS43 KDDC 272200
MTRP28
METAR KP28 272156Z AUTO 15013G23KT 29/19 A2993 RMK AO1 SLP118
T02940189





000
SAUS43 KDDC 272200
MTRP28
METAR KP28 272156Z AUTO 15013G23KT 29/19 A2993 RMK AO1 SLP118
T02940189





000
SAUS43 KDDC 272100
MTRP28
METAR KP28 272056Z AUTO 15014G25KT 28/18 A2996 RMK AO1 PK WND
14028/2024 SLP127 T02830183 58008





000
SAUS43 KDDC 272000
MTRP28
METAR KP28 271956Z AUTO 13013G27KT 29/19 A2998 RMK AO1 PK WND
12029/1919 WSHFT 1900 SLP134 T02940189





000
SAUS43 KDDC 271924
MTRP28
SPECI KP28 271920Z AUTO 13020G29KT 32/21 A2997 RMK AO1 PK WND
12029/1919 WSHFT 1900 T03220206





000
SAUS43 KDDC 271924
MTRP28
SPECI KP28 271920Z AUTO 13020G29KT 32/21 A2997 RMK AO1 PK WND
12029/1919 WSHFT 1900 T03220206





000
SAUS43 KDDC 271900
MTRP28
METAR KP28 271856Z AUTO 17014G21KT 37/15 A2997 RMK AO1 SLP126
T03670150





000
SAUS43 KDDC 271800
MTRP28
METAR KP28 271756Z AUTO 19011G18KT 36/16 A2998 RMK AO1 SLP132
T03560161 10356 20211 58009





000
SAUS43 KDDC 271700
MTRP28
METAR KP28 271656Z AUTO 20010KT 33/19 A2999 RMK AO1 SLP137 T03330189





000
SAUS43 KDDC 271700
MTRP28
METAR KP28 271656Z AUTO 20010KT 33/19 A2999 RMK AO1 SLP137 T03330189





000
SAUS43 KDDC 271602 COR
MTRP28
METAR KP28 271556Z AUTO 19009KT 30/19 A3001 RMK AO1 SLP143 T03000194





000
SAUS43 KDDC 271602 COR
MTRP28
METAR KP28 271556Z AUTO 19009KT 30/19 A3001 RMK AO1 SLP143 T03000194





000
SAUS43 KDDC 271500
MTRP28
METAR KP28 271456Z AUTO 17008KT 27/19 A3001 RMK AO1 SLP144 T02670194
50000





000
SAUS43 KDDC 271500
MTRP28
METAR KP28 271456Z AUTO 17008KT 27/19 A3001 RMK AO1 SLP144 T02670194
50000





000
SAUS43 KDDC 271400
MTRP28
METAR KP28 271356Z AUTO 16004KT 23/20 A3001 RMK AO1 SLP145 T02280200





000
SAUS43 KDDC 271400
MTRP28
METAR KP28 271356Z AUTO 16004KT 23/20 A3001 RMK AO1 SLP145 T02280200





000
SAUS43 KDDC 271300
MTRP28
METAR KP28 271256Z AUTO 13005KT 22/20 A3001 RMK AO1 SLP145 T02170200





000
SAUS43 KDDC 271300
MTRP28
METAR KP28 271256Z AUTO 13005KT 22/20 A3001 RMK AO1 SLP145 T02170200





000
SAUS43 KDDC 271200
MTRP28
METAR KP28 271156Z AUTO 14005KT 22/20 A3001 RMK AO1 SLP144 T02170200
10256 20211 58002





000
SAUS43 KDDC 271200
MTRP28
METAR KP28 271156Z AUTO 14005KT 22/20 A3001 RMK AO1 SLP144 T02170200
10256 20211 58002





000
SAUS43 KDDC 271100
MTRP28
METAR KP28 271056Z AUTO 13006KT 23/20 A3002 RMK AO1 SLP146 T02280200





000
SAUS43 KDDC 271100
MTRP28
METAR KP28 271056Z AUTO 13006KT 23/20 A3002 RMK AO1 SLP146 T02280200





000
SAUS43 KDDC 271000
MTRP28
METAR KP28 270956Z AUTO 00000KT 23/21 A3002 RMK AO1 SLP145 T02280206





000
SAUS43 KDDC 270900
MTRP28
METAR KP28 270856Z AUTO 16004KT 24/21 A3002 RMK AO1 SLP144 T02390206
55008





000
SAUS43 KDDC 270900
MTRP28
METAR KP28 270856Z AUTO 16004KT 24/21 A3002 RMK AO1 SLP144 T02390206
55008





000
SAUS43 KDDC 270800
MTRP28
METAR KP28 270756Z AUTO 15005KT 24/21 A3001 RMK AO1 SLP143 T02440211





000
SAUS43 KDDC 270700
MTRP28
METAR KP28 270656Z AUTO 14006KT 24/21 A3003 RMK AO1 SLP148 T02440211





000
SAUS43 KDDC 270600
MTRP28
METAR KP28 270556Z AUTO 14006KT 25/22 A3004 RMK AO1 SLP153 T02500217
10339 20250 403560194 58003





000
SAUS43 KDDC 270500
MTRP28
METAR KP28 270456Z AUTO 16006KT 27/21 A3005 RMK AO1 SLP155 T02670211





000
SAUS43 KDDC 270500
MTRP28
METAR KP28 270456Z AUTO 16006KT 27/21 A3005 RMK AO1 SLP155 T02670211





000
SAUS43 KDDC 270400
MTRP28
METAR KP28 270356Z AUTO 15005KT 28/21 A3005 RMK AO1 SLP160 T02780211





000
SAUS43 KDDC 270400
MTRP28
METAR KP28 270356Z AUTO 15005KT 28/21 A3005 RMK AO1 SLP160 T02780211





    US Dept of Commerce
    National Oceanic and Atmospheric Administration
    National Weather Service
    1325 East West Highway
    Silver Spring, MD 20910
    Page Author: NWS Internet Services Team
Disclaimer
Information Quality
Credits
Glossary
Privacy Policy
Freedom of Information Act (FOIA)
About Us
Career Opportunities